createdAt,value
2023-07-09T00:00:47.854Z,25.00
2023-07-09T00:01:47.903Z,25.00
2023-07-09T00:02:47.911Z,25.00
2023-07-09T00:03:47.916Z,0.00
2023-07-09T00:04:47.881Z,0.00
2023-07-09T00:05:48.205Z,0.00
2023-07-09T00:06:47.872Z,0.00
2023-07-09T00:07:47.856Z,0.00
2023-07-09T00:08:47.858Z,0.00
2023-07-09T00:09:47.844Z,0.00
2023-07-09T00:10:47.828Z,0.00
2023-07-09T00:11:47.836Z,0.00
2023-07-09T00:12:47.852Z,5.35
2023-07-09T00:13:47.910Z,29.26
2023-07-09T00:14:47.847Z,25.00
2023-07-09T00:15:47.907Z,25.34
2023-07-09T00:16:48.941Z,25.00
2023-07-09T00:17:47.884Z,25.00
2023-07-09T00:18:47.833Z,25.00
2023-07-09T00:19:47.823Z,27.03
2023-07-09T00:20:47.816Z,26.56
2023-07-09T00:21:47.804Z,27.27
2023-07-09T00:22:47.803Z,43.63
2023-07-09T00:23:47.854Z,51.04
2023-07-09T00:24:47.914Z,36.82
2023-07-09T00:25:47.951Z,39.49
2023-07-09T00:26:48.032Z,27.76
2023-07-09T00:27:48.065Z,40.84
2023-07-09T00:28:48.121Z,58.11
2023-07-09T00:29:48.179Z,56.71
2023-07-09T00:30:48.269Z,65.39
2023-07-09T00:31:48.338Z,69.47
2023-07-09T00:32:48.383Z,94.42
2023-07-09T00:33:48.384Z,86.97
2023-07-09T00:34:48.438Z,72.14
2023-07-09T00:35:48.486Z,87.13
2023-07-09T00:36:48.551Z,102.25
2023-07-09T00:37:48.592Z,129.94
2023-07-09T00:38:48.665Z,148.23
2023-07-09T00:39:48.731Z,145.48
2023-07-09T00:40:48.774Z,142.78
2023-07-09T00:41:48.826Z,108.36
2023-07-09T00:42:48.886Z,64.91
2023-07-09T00:43:48.958Z,41.41
2023-07-09T00:44:48.993Z,33.06
2023-07-09T00:45:51.024Z,34.88
2023-07-09T00:46:49.069Z,55.08
2023-07-09T00:47:49.088Z,68.26
2023-07-09T00:48:49.050Z,132.16
2023-07-09T00:49:49.090Z,223.05
2023-07-09T00:50:49.059Z,240.35
2023-07-09T00:51:49.111Z,239.78
2023-07-09T00:52:49.059Z,230.42
2023-07-09T00:53:49.062Z,178.43
2023-07-09T00:54:49.070Z,158.91
2023-07-09T00:55:49.070Z,164.64
2023-07-09T00:56:49.068Z,157.61
2023-07-09T00:57:49.072Z,132.05
2023-07-09T00:58:49.121Z,148.29
2023-07-09T00:59:49.095Z,171.04
2023-07-09T01:00:49.103Z,86.48
2023-07-09T01:01:49.203Z,42.49
2023-07-09T01:02:49.184Z,25.22
2023-07-09T01:03:49.096Z,25.78
2023-07-09T01:04:49.200Z,44.19
2023-07-09T01:05:49.096Z,33.42
2023-07-09T01:06:49.100Z,14.80
2023-07-09T01:07:49.107Z,20.77
2023-07-09T01:08:49.105Z,23.92
2023-07-09T01:09:49.108Z,28.75
2023-07-09T01:10:49.113Z,42.61
2023-07-09T01:11:49.119Z,45.17
2023-07-09T01:12:49.148Z,57.84
2023-07-09T01:13:49.240Z,48.91
2023-07-09T01:14:49.175Z,55.79
2023-07-09T01:15:49.330Z,46.64
2023-07-09T01:16:49.218Z,112.63
2023-07-09T01:17:49.281Z,169.65
2023-07-09T01:18:49.282Z,207.94
2023-07-09T01:19:49.272Z,228.10
2023-07-09T01:20:49.280Z,250.00
2023-07-09T01:21:49.289Z,249.20
2023-07-09T01:22:49.303Z,250.00
2023-07-09T01:23:49.372Z,246.83
2023-07-09T01:24:49.361Z,250.78
2023-07-09T01:25:49.412Z,179.09
2023-07-09T01:26:49.454Z,117.50
2023-07-09T01:27:49.509Z,72.85
2023-07-09T01:28:49.548Z,39.15
2023-07-09T01:29:49.610Z,38.63
2023-07-09T01:30:49.644Z,52.54
2023-07-09T01:31:49.684Z,56.13
2023-07-09T01:32:49.822Z,63.53
2023-07-09T01:33:50.288Z,72.51
2023-07-09T01:34:49.785Z,81.13
2023-07-09T01:35:49.792Z,67.05
2023-07-09T01:36:49.823Z,71.76
2023-07-09T01:37:49.835Z,79.81
2023-07-09T01:38:49.880Z,82.89
2023-07-09T01:39:49.907Z,85.64
2023-07-09T01:40:49.954Z,79.98
2023-07-09T01:41:49.989Z,80.70
2023-07-09T01:42:50.036Z,84.42
2023-07-09T01:43:50.088Z,121.07
2023-07-09T01:44:50.133Z,158.59
2023-07-09T01:45:50.171Z,183.70
2023-07-09T01:46:50.256Z,195.45
2023-07-09T01:47:50.366Z,198.63
2023-07-09T01:48:50.289Z,208.24
2023-07-09T01:49:50.336Z,207.88
2023-07-09T01:50:50.396Z,208.12
2023-07-09T01:51:50.407Z,181.74
2023-07-09T01:52:50.428Z,152.18
2023-07-09T01:53:50.449Z,136.59
2023-07-09T01:54:50.618Z,127.60
2023-07-09T01:55:50.524Z,141.80
2023-07-09T01:56:50.561Z,159.82
2023-07-09T01:57:50.584Z,145.42
2023-07-09T01:58:51.035Z,128.77
2023-07-09T01:59:50.642Z,123.60
2023-07-09T02:00:50.723Z,131.44
2023-07-09T02:01:50.673Z,122.67
2023-07-09T02:02:50.700Z,107.53
2023-07-09T02:03:50.724Z,76.68
2023-07-09T02:04:50.777Z,60.17
2023-07-09T02:05:50.803Z,25.00
2023-07-09T02:06:50.926Z,25.24
2023-07-09T02:07:50.869Z,26.36
2023-07-09T02:08:50.894Z,25.00
2023-07-09T02:09:51.860Z,28.25
2023-07-09T02:10:51.043Z,29.87
2023-07-09T02:11:51.125Z,25.00
2023-07-09T02:12:51.195Z,24.49
2023-07-09T02:13:51.314Z,28.11
2023-07-09T02:14:51.325Z,30.61
2023-07-09T02:15:51.397Z,34.15
2023-07-09T02:16:51.512Z,46.49
2023-07-09T02:17:51.565Z,45.01
2023-07-09T02:18:51.623Z,28.53
2023-07-09T02:19:51.662Z,25.00
2023-07-09T02:20:51.726Z,25.00
2023-07-09T02:21:51.808Z,30.63
2023-07-09T02:22:51.872Z,35.03
2023-07-09T02:23:51.887Z,36.75
2023-07-09T02:24:51.940Z,41.05
2023-07-09T02:25:51.987Z,47.39
2023-07-09T02:26:52.080Z,49.36
2023-07-09T02:27:52.051Z,41.05
2023-07-09T02:28:52.061Z,24.81
2023-07-09T02:29:52.064Z,25.81
2023-07-09T02:30:52.108Z,31.12
2023-07-09T02:31:52.099Z,29.90
2023-07-09T02:32:52.190Z,33.19
2023-07-09T02:33:52.117Z,31.05
2023-07-09T02:34:52.136Z,34.10
2023-07-09T02:35:52.145Z,32.52
2023-07-09T02:36:52.137Z,28.25
2023-07-09T02:37:52.167Z,25.00
2023-07-09T02:38:52.812Z,25.00
2023-07-09T02:39:52.150Z,19.83
2023-07-09T02:40:52.158Z,25.32
2023-07-09T02:41:52.198Z,31.34
2023-07-09T02:42:52.180Z,25.00
2023-07-09T02:43:52.181Z,26.34
2023-07-09T02:44:52.192Z,29.80
2023-07-09T02:45:52.196Z,25.92
2023-07-09T02:46:52.222Z,25.85
2023-07-09T02:47:52.349Z,31.70
2023-07-09T02:48:52.215Z,29.20
2023-07-09T02:49:52.237Z,25.00
2023-07-09T02:50:52.228Z,25.00
2023-07-09T02:51:52.269Z,25.46
2023-07-09T02:52:52.332Z,25.47
2023-07-09T02:53:52.338Z,27.04
2023-07-09T02:54:52.398Z,29.92
2023-07-09T02:55:52.448Z,22.99
2023-07-09T02:56:52.534Z,25.00
2023-07-09T02:57:52.617Z,25.00
2023-07-09T02:58:52.703Z,37.51
2023-07-09T02:59:52.768Z,50.64
2023-07-09T03:00:52.844Z,59.68
2023-07-09T03:01:52.922Z,54.76
2023-07-09T03:02:53.081Z,61.62
2023-07-09T03:03:53.078Z,67.90
2023-07-09T03:04:53.148Z,71.87
2023-07-09T03:05:53.241Z,89.32
2023-07-09T03:06:53.319Z,101.81
2023-07-09T03:07:53.402Z,112.87
2023-07-09T03:08:53.475Z,114.22
2023-07-09T03:09:53.545Z,117.56
2023-07-09T03:10:53.662Z,127.72
2023-07-09T03:11:53.698Z,137.17
2023-07-09T03:12:53.779Z,146.12
2023-07-09T03:13:53.888Z,147.52
2023-07-09T03:14:53.934Z,138.30
2023-07-09T03:15:53.989Z,133.15
2023-07-09T03:16:54.178Z,133.94
2023-07-09T03:17:54.196Z,129.66
2023-07-09T03:18:54.213Z,129.75
2023-07-09T03:19:54.320Z,125.82
2023-07-09T03:20:54.374Z,128.22
2023-07-09T03:21:54.448Z,123.19
2023-07-09T03:22:54.487Z,123.08
2023-07-09T03:23:54.543Z,131.47
2023-07-09T03:24:54.616Z,136.77
2023-07-09T03:25:54.665Z,133.15
2023-07-09T03:26:54.769Z,133.00
2023-07-09T03:27:54.810Z,142.21
2023-07-09T03:28:54.892Z,143.92
2023-07-09T03:29:54.966Z,149.99
2023-07-09T03:30:55.030Z,148.39
2023-07-09T03:31:55.181Z,155.92
2023-07-09T03:32:55.274Z,160.05
2023-07-09T03:33:55.304Z,165.43
2023-07-09T03:34:55.384Z,161.34
2023-07-09T03:35:55.472Z,152.38
2023-07-09T03:36:55.527Z,134.90
2023-07-09T03:37:55.570Z,128.20
2023-07-09T03:38:55.622Z,129.81
2023-07-09T03:39:55.674Z,128.04
2023-07-09T03:40:55.727Z,133.92
2023-07-09T03:41:55.802Z,135.14
2023-07-09T03:42:55.901Z,136.42
2023-07-09T03:43:55.964Z,135.68
2023-07-09T03:44:56.036Z,138.35
2023-07-09T03:45:56.112Z,142.83
2023-07-09T03:46:56.209Z,150.14
2023-07-09T03:47:56.286Z,149.71
2023-07-09T03:48:56.338Z,149.70
2023-07-09T03:49:56.350Z,151.91
2023-07-09T03:50:56.413Z,153.04
2023-07-09T03:51:56.487Z,157.63
2023-07-09T03:52:56.536Z,153.16
2023-07-09T03:53:56.605Z,164.08
2023-07-09T03:54:56.672Z,173.09
2023-07-09T03:55:56.758Z,195.22
2023-07-09T03:56:56.827Z,211.39
2023-07-09T03:57:56.910Z,231.91
2023-07-09T03:58:57.054Z,247.04
2023-07-09T03:59:57.068Z,250.00
2023-07-09T04:00:57.161Z,249.80
2023-07-09T04:01:57.381Z,250.00
2023-07-09T04:02:57.374Z,249.19
2023-07-09T04:03:57.439Z,247.70
2023-07-09T04:04:57.474Z,244.97
2023-07-09T04:05:57.554Z,251.96
2023-07-09T04:06:57.633Z,252.83
2023-07-09T04:07:57.711Z,250.37
2023-07-09T04:08:57.776Z,227.48
2023-07-09T04:09:57.842Z,213.67
2023-07-09T04:10:57.893Z,213.31
2023-07-09T04:11:57.936Z,196.34
2023-07-09T04:12:57.996Z,191.75
2023-07-09T04:13:58.072Z,181.94
2023-07-09T04:14:58.088Z,167.95
2023-07-09T04:15:58.178Z,165.91
2023-07-09T04:16:58.107Z,155.92
2023-07-09T04:17:58.176Z,154.22
2023-07-09T04:18:58.109Z,150.51
2023-07-09T04:19:58.131Z,149.78
2023-07-09T04:20:58.197Z,148.90
2023-07-09T04:21:58.232Z,150.75
2023-07-09T04:22:58.285Z,160.26
2023-07-09T04:23:58.299Z,166.62
2023-07-09T04:24:58.300Z,173.65
2023-07-09T04:25:58.279Z,185.25
2023-07-09T04:26:58.285Z,187.42
2023-07-09T04:27:58.317Z,190.41
2023-07-09T04:28:58.341Z,194.48
2023-07-09T04:29:58.357Z,193.94
2023-07-09T04:30:58.369Z,196.36
2023-07-09T04:31:58.414Z,192.39
2023-07-09T04:32:58.332Z,191.02
2023-07-09T04:33:58.301Z,195.61
2023-07-09T04:34:58.315Z,201.82
2023-07-09T04:35:58.318Z,206.84
2023-07-09T04:36:58.345Z,205.91
2023-07-09T04:37:58.360Z,209.37
2023-07-09T04:38:58.359Z,211.54
2023-07-09T04:39:58.342Z,206.78
2023-07-09T04:40:58.324Z,209.12
2023-07-09T04:41:58.328Z,208.35
2023-07-09T04:42:58.280Z,202.98
2023-07-09T04:43:58.255Z,203.86
2023-07-09T04:44:58.285Z,212.20
2023-07-09T04:45:58.269Z,223.73
2023-07-09T04:46:58.168Z,224.26
2023-07-09T04:47:58.154Z,223.91
2023-07-09T04:48:58.116Z,224.27
2023-07-09T04:49:58.116Z,227.65
2023-07-09T04:50:58.094Z,227.59
2023-07-09T04:51:58.057Z,237.52
2023-07-09T04:52:58.030Z,248.31
2023-07-09T04:53:58.015Z,247.34
2023-07-09T04:54:58.007Z,242.67
2023-07-09T04:55:58.960Z,241.63
2023-07-09T04:56:57.932Z,254.88
2023-07-09T04:57:57.927Z,232.64
2023-07-09T04:58:57.902Z,206.83
2023-07-09T04:59:57.878Z,200.54
2023-07-09T05:00:57.901Z,187.59
2023-07-09T05:01:57.795Z,160.19
2023-07-09T05:02:57.866Z,149.96
2023-07-09T05:03:57.826Z,144.41
2023-07-09T05:04:57.771Z,149.02
2023-07-09T05:05:57.753Z,161.22
2023-07-09T05:06:57.755Z,174.85
2023-07-09T05:07:57.747Z,190.91
2023-07-09T05:08:57.748Z,205.57
2023-07-09T05:09:57.743Z,208.19
2023-07-09T05:10:57.707Z,199.15
2023-07-09T05:11:57.662Z,208.79
2023-07-09T05:12:57.674Z,219.45
2023-07-09T05:13:57.702Z,229.38
2023-07-09T05:14:57.694Z,232.17
2023-07-09T05:15:57.701Z,229.15
2023-07-09T05:16:57.624Z,225.38
2023-07-09T05:17:57.698Z,223.65
2023-07-09T05:18:57.644Z,223.74
2023-07-09T05:19:57.554Z,230.96
2023-07-09T05:20:57.659Z,239.42
2023-07-09T05:21:57.464Z,251.15
2023-07-09T05:22:57.422Z,250.00
2023-07-09T05:23:57.448Z,250.85
2023-07-09T05:24:57.359Z,248.56
2023-07-09T05:25:57.326Z,253.13
2023-07-09T05:26:57.313Z,249.94
2023-07-09T05:27:57.305Z,249.10
2023-07-09T05:28:57.314Z,248.48
2023-07-09T05:29:57.351Z,248.89
2023-07-09T05:30:57.405Z,247.95
2023-07-09T05:31:57.370Z,245.82
2023-07-09T05:32:57.420Z,241.89
2023-07-09T05:33:57.410Z,240.02
2023-07-09T05:34:57.415Z,235.42
2023-07-09T05:35:57.408Z,227.44
2023-07-09T05:36:59.657Z,229.54
2023-07-09T05:37:57.363Z,221.52
2023-07-09T05:38:57.303Z,220.71
2023-07-09T05:39:57.286Z,225.89
2023-07-09T05:40:57.222Z,218.26
2023-07-09T05:41:57.501Z,222.71
2023-07-09T05:42:57.152Z,228.57
2023-07-09T05:43:57.122Z,230.81
2023-07-09T05:44:57.079Z,237.98
2023-07-09T05:45:57.044Z,248.10
2023-07-09T05:46:57.038Z,249.14
2023-07-09T05:47:56.980Z,245.55
2023-07-09T05:48:56.917Z,250.40
2023-07-09T05:49:56.881Z,250.00
2023-07-09T05:50:56.858Z,247.43
2023-07-09T05:51:56.787Z,242.88
2023-07-09T05:52:56.729Z,240.56
2023-07-09T05:53:56.688Z,240.13
2023-07-09T05:54:56.676Z,242.66
2023-07-09T05:55:56.661Z,247.63
2023-07-09T05:56:56.724Z,244.45
2023-07-09T05:57:56.712Z,245.00
2023-07-09T05:58:56.719Z,235.88
2023-07-09T05:59:56.731Z,225.78
2023-07-09T06:00:56.785Z,222.23
2023-07-09T06:01:56.755Z,225.56
2023-07-09T06:02:57.017Z,231.89
2023-07-09T06:03:56.895Z,226.62
2023-07-09T06:04:56.764Z,223.28
2023-07-09T06:05:56.738Z,214.35
2023-07-09T06:06:56.739Z,215.35
2023-07-09T06:07:56.716Z,207.03
2023-07-09T06:08:56.744Z,203.20
2023-07-09T06:09:56.763Z,200.95
2023-07-09T06:10:56.787Z,205.61
2023-07-09T06:11:56.790Z,205.12
2023-07-09T06:12:56.807Z,198.05
2023-07-09T06:13:57.031Z,193.54
2023-07-09T06:14:56.800Z,183.34
2023-07-09T06:15:56.816Z,182.71
2023-07-09T06:16:56.905Z,186.81
2023-07-09T06:17:56.839Z,185.90
2023-07-09T06:18:56.819Z,176.15
2023-07-09T06:19:59.427Z,170.85
2023-07-09T06:20:56.835Z,167.88
2023-07-09T06:21:56.751Z,166.91
2023-07-09T06:22:56.714Z,169.49
2023-07-09T06:23:56.645Z,159.77
2023-07-09T06:24:56.597Z,158.06
2023-07-09T06:25:56.547Z,158.92
2023-07-09T06:26:56.521Z,160.20
2023-07-09T06:27:56.446Z,159.78
2023-07-09T06:28:59.692Z,152.23
2023-07-09T06:29:56.350Z,152.30
2023-07-09T06:30:56.378Z,151.28
2023-07-09T06:31:56.288Z,145.29
2023-07-09T06:32:56.308Z,142.14
2023-07-09T06:33:56.196Z,129.90
2023-07-09T06:34:56.143Z,126.40
2023-07-09T06:35:56.125Z,127.46
2023-07-09T06:36:56.057Z,113.13
2023-07-09T06:37:56.004Z,113.71
2023-07-09T06:38:55.982Z,107.42
2023-07-09T06:39:55.908Z,106.32
2023-07-09T06:40:55.878Z,90.50
2023-07-09T06:41:55.823Z,83.10
2023-07-09T06:42:55.769Z,74.29
2023-07-09T06:43:55.713Z,63.76
2023-07-09T06:44:55.660Z,54.91
2023-07-09T06:45:55.610Z,53.51
2023-07-09T06:46:55.610Z,46.86
2023-07-09T06:47:55.559Z,32.09
2023-07-09T06:48:55.470Z,28.52
2023-07-09T06:49:55.419Z,25.44
2023-07-09T06:50:55.356Z,25.33
2023-07-09T06:51:55.304Z,25.13
2023-07-09T06:52:55.317Z,25.88
2023-07-09T06:53:55.306Z,25.05
2023-07-09T06:54:55.320Z,27.21
2023-07-09T06:55:55.281Z,32.42
2023-07-09T06:56:55.257Z,27.87
2023-07-09T06:57:55.216Z,25.00
2023-07-09T06:58:55.181Z,23.08
2023-07-09T06:59:55.139Z,24.04
2023-07-09T07:00:55.103Z,26.91
2023-07-09T07:01:55.133Z,25.61
2023-07-09T07:02:55.056Z,25.00
2023-07-09T07:03:55.012Z,23.64
2023-07-09T07:04:54.927Z,30.20
2023-07-09T07:05:54.950Z,43.60
2023-07-09T07:06:54.906Z,26.09
2023-07-09T07:07:54.903Z,25.96
2023-07-09T07:08:54.885Z,25.00
2023-07-09T07:09:54.883Z,18.59
2023-07-09T07:10:54.909Z,25.48
2023-07-09T07:11:54.906Z,21.96
2023-07-09T07:12:54.849Z,25.00
2023-07-09T07:13:54.868Z,20.62
2023-07-09T07:14:54.777Z,25.63
2023-07-09T07:15:54.723Z,27.80
2023-07-09T07:16:54.750Z,26.34
2023-07-09T07:17:54.675Z,24.34
2023-07-09T07:18:54.607Z,31.51
2023-07-09T07:19:54.548Z,34.79
2023-07-09T07:20:54.483Z,33.62
2023-07-09T07:21:54.434Z,36.39
2023-07-09T07:22:54.388Z,31.97
2023-07-09T07:23:54.311Z,33.25
2023-07-09T07:24:54.243Z,25.29
2023-07-09T07:25:54.182Z,26.37
2023-07-09T07:26:54.155Z,25.80
2023-07-09T07:27:54.103Z,24.95
2023-07-09T07:28:57.696Z,24.88
2023-07-09T07:29:53.905Z,24.89
2023-07-09T07:30:53.837Z,25.58
2023-07-09T07:31:53.778Z,20.94
2023-07-09T07:32:53.736Z,12.81
2023-07-09T07:33:53.589Z,5.49
2023-07-09T07:34:53.504Z,7.52
2023-07-09T07:36:20.356Z,8.97
2023-07-09T07:36:53.351Z,5.35
2023-07-09T07:37:53.311Z,0.00
2023-07-09T07:38:53.192Z,0.00
2023-07-09T07:39:53.140Z,0.00
2023-07-09T07:40:53.017Z,0.00
2023-07-09T07:41:52.936Z,0.00
2023-07-09T07:42:52.859Z,0.00
2023-07-09T07:43:52.764Z,1.70
2023-07-09T07:44:52.646Z,6.01
2023-07-09T07:45:52.564Z,8.31
2023-07-09T07:46:54.283Z,15.95
2023-07-09T07:47:52.397Z,17.13
2023-07-09T07:48:52.236Z,28.02
2023-07-09T07:49:52.133Z,25.48
2023-07-09T07:50:52.028Z,25.03
2023-07-09T07:51:51.925Z,27.98
2023-07-09T07:52:51.827Z,25.21
2023-07-09T07:53:51.703Z,24.96
2023-07-09T07:54:51.594Z,33.88
2023-07-09T07:55:51.495Z,29.66
2023-07-09T07:56:51.358Z,26.79
2023-07-09T07:57:51.252Z,32.08
2023-07-09T07:58:51.157Z,25.00
2023-07-09T07:59:51.015Z,26.29
2023-07-09T08:00:50.900Z,26.38
2023-07-09T08:01:50.859Z,23.06
2023-07-09T08:02:50.660Z,22.97
2023-07-09T08:03:50.643Z,33.00
2023-07-09T08:04:50.436Z,40.66
2023-07-09T08:05:50.376Z,39.84
2023-07-09T08:06:50.298Z,33.42
2023-07-09T08:07:50.227Z,27.93
2023-07-09T08:08:50.133Z,18.07
2023-07-09T08:09:50.012Z,25.79
2023-07-09T08:10:49.882Z,21.05
2023-07-09T08:11:49.756Z,23.95
2023-07-09T08:12:49.669Z,28.00
2023-07-09T08:13:49.672Z,31.83
2023-07-09T08:14:49.556Z,25.29
2023-07-09T08:15:49.832Z,27.13
2023-07-09T08:16:49.441Z,23.00
2023-07-09T08:17:49.312Z,32.93
2023-07-09T08:18:49.226Z,26.75
2023-07-09T08:19:49.061Z,24.72
2023-07-09T08:20:48.977Z,22.27
2023-07-09T08:21:48.905Z,18.51
2023-07-09T08:22:48.802Z,29.93
2023-07-09T08:23:48.698Z,30.98
2023-07-09T08:24:48.569Z,27.65
2023-07-09T08:25:48.446Z,26.79
2023-07-09T08:26:48.313Z,34.25
2023-07-09T08:27:48.173Z,23.51
2023-07-09T08:28:48.075Z,22.90
2023-07-09T08:29:47.940Z,24.05
2023-07-09T08:30:47.854Z,29.18
2023-07-09T08:31:47.714Z,32.20
2023-07-09T08:32:47.570Z,34.88
2023-07-09T08:33:47.397Z,35.84
2023-07-09T08:35:18.077Z,35.09
2023-07-09T08:35:47.059Z,34.22
2023-07-09T08:36:46.890Z,32.38
2023-07-09T08:37:46.727Z,35.25
2023-07-09T08:38:46.673Z,33.35
2023-07-09T08:39:46.386Z,30.59
2023-07-09T08:40:46.233Z,23.86
2023-07-09T08:41:46.028Z,23.24
2023-07-09T08:42:59.447Z,21.77
2023-07-09T08:43:45.704Z,13.62
2023-07-09T08:44:45.535Z,11.59
2023-07-09T08:45:45.451Z,10.58
2023-07-09T08:46:45.227Z,16.39
2023-07-09T08:47:45.129Z,18.34
2023-07-09T08:48:45.368Z,18.78
2023-07-09T08:49:44.690Z,19.96
2023-07-09T08:50:44.513Z,23.22
2023-07-09T08:51:44.322Z,20.23
2023-07-09T08:52:44.170Z,28.00
2023-07-09T08:53:43.966Z,21.42
2023-07-09T08:54:43.788Z,21.88
2023-07-09T08:55:43.602Z,30.66
2023-07-09T08:56:43.431Z,33.85
2023-07-09T08:57:43.281Z,25.66
2023-07-09T08:58:43.065Z,25.25
2023-07-09T08:59:42.893Z,28.27
2023-07-09T09:00:42.752Z,25.00
2023-07-09T09:01:42.538Z,17.90
2023-07-09T09:02:45.422Z,22.01
2023-07-09T09:03:42.216Z,17.13
2023-07-09T09:04:41.960Z,21.12
2023-07-09T09:05:41.850Z,23.83
2023-07-09T09:06:41.590Z,25.38
2023-07-09T09:07:41.400Z,21.68
2023-07-09T09:08:41.324Z,29.04
2023-07-09T09:09:41.024Z,28.68
2023-07-09T09:10:40.836Z,27.64
2023-07-09T09:11:40.641Z,23.86
2023-07-09T09:12:40.439Z,22.25
2023-07-09T09:13:40.333Z,24.26
2023-07-09T09:14:40.064Z,24.68
2023-07-09T09:15:39.892Z,28.27
2023-07-09T09:16:39.749Z,32.15
2023-07-09T09:17:39.659Z,36.43
2023-07-09T09:18:39.501Z,36.50
2023-07-09T09:19:39.280Z,35.85
2023-07-09T09:20:39.140Z,29.76
2023-07-09T09:21:38.976Z,30.99
2023-07-09T09:22:41.733Z,33.42
2023-07-09T09:23:38.683Z,36.80
2023-07-09T09:24:38.530Z,42.01
2023-07-09T09:25:38.335Z,47.91
2023-07-09T09:26:38.189Z,40.43
2023-07-09T09:27:38.020Z,38.80
2023-07-09T09:28:37.845Z,42.89
2023-07-09T09:29:37.724Z,42.58
2023-07-09T09:30:37.550Z,45.97
2023-07-09T09:31:37.457Z,45.79
2023-07-09T09:32:37.321Z,40.00
2023-07-09T09:33:37.121Z,29.80
2023-07-09T09:34:36.990Z,26.00
2023-07-09T09:35:36.806Z,25.77
2023-07-09T09:36:36.650Z,20.22
2023-07-09T09:37:36.486Z,22.21
2023-07-09T09:38:36.333Z,26.02
2023-07-09T09:39:36.179Z,26.73
2023-07-09T09:40:36.020Z,41.19
2023-07-09T09:41:35.867Z,42.52
2023-07-09T09:42:35.711Z,38.61
2023-07-09T09:43:35.574Z,41.15
2023-07-09T09:44:35.384Z,45.60
2023-07-09T09:45:35.260Z,39.56
2023-07-09T09:46:35.092Z,34.00
2023-07-09T09:47:35.190Z,28.57
2023-07-09T09:48:34.769Z,23.66
2023-07-09T09:49:34.576Z,28.35
2023-07-09T09:50:34.448Z,30.56
2023-07-09T09:51:34.254Z,37.36
2023-07-09T09:52:34.085Z,40.17
2023-07-09T09:53:34.015Z,46.87
2023-07-09T09:54:33.840Z,56.47
2023-07-09T09:55:33.699Z,55.43
2023-07-09T09:56:33.539Z,56.45
2023-07-09T09:57:33.396Z,44.90
2023-07-09T09:58:33.285Z,33.25
2023-07-09T09:59:33.158Z,39.03
2023-07-09T10:00:33.065Z,45.35
2023-07-09T10:01:33.006Z,44.08
2023-07-09T10:02:32.897Z,46.62
2023-07-09T10:03:32.770Z,46.73
2023-07-09T10:04:32.638Z,48.17
2023-07-09T10:05:32.566Z,62.47
2023-07-09T10:06:32.528Z,65.67
2023-07-09T10:07:32.427Z,55.79
2023-07-09T10:08:32.368Z,51.85
2023-07-09T10:09:32.239Z,46.34
2023-07-09T10:10:32.152Z,41.34
2023-07-09T10:11:32.102Z,50.52
2023-07-09T10:12:32.021Z,51.92
2023-07-09T10:13:32.092Z,60.94
2023-07-09T10:14:31.881Z,56.62
2023-07-09T10:15:31.838Z,49.72
2023-07-09T10:16:31.782Z,43.41
2023-07-09T10:17:31.787Z,37.74
2023-07-09T10:18:31.767Z,34.42
2023-07-09T10:19:31.688Z,40.21
2023-07-09T10:20:31.643Z,49.27
2023-07-09T10:21:31.708Z,41.78
2023-07-09T10:22:31.590Z,51.89
2023-07-09T10:23:31.522Z,42.02
2023-07-09T10:24:31.450Z,37.16
2023-07-09T10:25:31.419Z,25.79
2023-07-09T10:26:31.355Z,28.06
2023-07-09T10:27:31.321Z,20.80
2023-07-09T10:28:31.249Z,23.47
2023-07-09T10:29:31.190Z,23.85
2023-07-09T10:30:31.121Z,22.79
2023-07-09T10:31:31.160Z,29.84
2023-07-09T10:32:31.038Z,33.49
2023-07-09T10:33:30.967Z,27.01
2023-07-09T10:34:30.918Z,26.20
2023-07-09T10:35:32.071Z,25.17
2023-07-09T10:36:30.855Z,28.17
2023-07-09T10:37:31.128Z,33.00
2023-07-09T10:38:30.761Z,34.27
2023-07-09T10:39:30.676Z,29.81
2023-07-09T10:40:30.621Z,28.01
2023-07-09T10:41:30.940Z,33.51
2023-07-09T10:42:30.619Z,36.51
2023-07-09T10:43:32.135Z,44.32
2023-07-09T10:44:30.553Z,45.17
2023-07-09T10:45:30.471Z,47.13
2023-07-09T10:46:30.445Z,49.12
2023-07-09T10:47:30.376Z,49.24
2023-07-09T10:48:30.308Z,39.42
2023-07-09T10:49:30.207Z,39.92
2023-07-09T10:50:30.132Z,56.39
2023-07-09T10:51:30.074Z,50.42
2023-07-09T10:52:29.987Z,39.20
2023-07-09T10:53:29.941Z,38.16
2023-07-09T10:54:29.860Z,47.68
2023-07-09T10:55:29.766Z,56.74
2023-07-09T10:56:29.686Z,48.88
2023-07-09T10:57:29.597Z,44.62
2023-07-09T10:58:29.571Z,58.87
2023-07-09T10:59:29.463Z,52.32
2023-07-09T11:00:29.338Z,42.08
2023-07-09T11:01:29.293Z,37.95
2023-07-09T11:02:29.163Z,39.23
2023-07-09T11:03:29.244Z,42.42
2023-07-09T11:04:28.969Z,37.40
2023-07-09T11:05:28.899Z,43.28
2023-07-09T11:06:28.799Z,22.28
2023-07-09T11:07:28.720Z,33.76
2023-07-09T11:08:28.634Z,40.01
2023-07-09T11:09:28.529Z,27.01
2023-07-09T11:10:28.437Z,27.03
2023-07-09T11:11:28.318Z,23.97
2023-07-09T11:12:28.228Z,24.89
2023-07-09T11:13:42.576Z,26.91
2023-07-09T11:14:28.093Z,25.11
2023-07-09T11:15:27.911Z,16.60
2023-07-09T11:16:27.883Z,14.32
2023-07-09T11:17:27.714Z,19.07
2023-07-09T11:18:27.733Z,25.07
2023-07-09T11:19:27.519Z,23.39
2023-07-09T11:20:27.402Z,23.37
2023-07-09T11:21:27.312Z,24.31
2023-07-09T11:22:27.220Z,28.50
2023-07-09T11:23:27.164Z,26.42
2023-07-09T11:24:27.012Z,24.43
2023-07-09T11:25:26.902Z,19.35
2023-07-09T11:26:26.819Z,16.54
2023-07-09T11:27:26.684Z,19.78
2023-07-09T11:28:26.599Z,28.76
2023-07-09T11:29:26.479Z,24.89
2023-07-09T11:30:26.376Z,25.32
2023-07-09T11:31:26.626Z,23.50
2023-07-09T11:32:26.171Z,28.51
2023-07-09T11:33:26.057Z,27.99
2023-07-09T11:34:25.920Z,29.41
2023-07-09T11:35:25.794Z,29.67
2023-07-09T11:36:25.669Z,24.92
2023-07-09T11:37:25.573Z,32.13
2023-07-09T11:38:25.492Z,47.53
2023-07-09T11:39:25.365Z,57.41
2023-07-09T11:40:25.246Z,60.21
2023-07-09T11:41:25.146Z,47.05
2023-07-09T11:42:25.069Z,41.72
2023-07-09T11:43:24.934Z,38.17
2023-07-09T11:44:24.845Z,44.00
2023-07-09T11:45:24.725Z,36.37
2023-07-09T11:46:24.689Z,34.27
2023-07-09T11:47:24.534Z,33.85
2023-07-09T11:48:24.455Z,15.34
2023-07-09T11:49:24.366Z,22.16
2023-07-09T11:50:24.413Z,25.14
2023-07-09T11:51:24.221Z,26.03
2023-07-09T11:52:24.192Z,30.52
2023-07-09T11:53:24.149Z,47.44
2023-07-09T11:54:24.107Z,44.05
2023-07-09T11:55:23.039Z,45.63
2023-07-09T11:56:24.004Z,53.84
2023-07-09T11:57:23.930Z,48.52
2023-07-09T11:58:23.867Z,43.15
2023-07-09T11:59:23.761Z,54.07
2023-07-09T12:00:23.669Z,62.14
2023-07-09T12:01:23.602Z,67.22
2023-07-09T12:02:23.500Z,51.59
2023-07-09T12:03:23.486Z,38.07
2023-07-09T12:04:23.456Z,36.34
2023-07-09T12:05:23.343Z,51.19
2023-07-09T12:06:23.258Z,52.53
2023-07-09T12:07:23.209Z,49.25
2023-07-09T12:08:23.172Z,48.97
2023-07-09T12:09:23.141Z,48.27
2023-07-09T12:10:23.078Z,62.27
2023-07-09T12:11:23.035Z,59.81
2023-07-09T12:12:22.981Z,48.84
2023-07-09T12:13:22.895Z,44.91
2023-07-09T12:14:22.920Z,38.19
2023-07-09T12:15:22.808Z,34.71
2023-07-09T12:16:22.834Z,34.56
2023-07-09T12:17:22.732Z,37.85
2023-07-09T12:18:22.567Z,48.59
2023-07-09T12:19:22.507Z,42.24
2023-07-09T12:20:22.387Z,40.48
2023-07-09T12:21:22.318Z,34.48
2023-07-09T12:22:22.294Z,33.78
2023-07-09T12:23:22.200Z,38.14
2023-07-09T12:24:22.144Z,33.27
2023-07-09T12:25:22.065Z,28.10
2023-07-09T12:26:21.999Z,36.41
2023-07-09T12:27:21.891Z,40.52
2023-07-09T12:28:21.810Z,38.15
2023-07-09T12:29:21.744Z,33.72
2023-07-09T12:30:21.645Z,29.16
2023-07-09T12:31:21.554Z,24.20
2023-07-09T12:32:21.509Z,27.92
2023-07-09T12:33:21.396Z,43.99
2023-07-09T12:34:21.335Z,38.90
2023-07-09T12:35:21.256Z,30.22
2023-07-09T12:36:21.176Z,30.99
2023-07-09T12:37:21.120Z,32.91
2023-07-09T12:38:21.024Z,34.46
2023-07-09T12:39:20.935Z,29.36
2023-07-09T12:40:20.854Z,28.54
2023-07-09T12:41:20.799Z,24.50
2023-07-09T12:42:20.735Z,36.45
2023-07-09T12:43:20.653Z,39.67
2023-07-09T12:44:20.591Z,39.65